sensor_id;sensor_type;location;lat;lon;timestamp;P1;durP1;ratioP1;P2;durP2;ratioP2
27213;SDS011;14723;55.814;37.460;2023-04-25T00:01:38;14.43;;;7.70;;
27213;SDS011;14723;55.814;37.460;2023-04-25T00:04:45;15.82;;;7.47;;
27213;SDS011;14723;55.814;37.460;2023-04-25T00:10:57;13.10;;;7.25;;
27213;SDS011;14723;55.814;37.460;2023-04-25T00:14:03;15.40;;;7.57;;
27213;SDS011;14723;55.814;37.460;2023-04-25T00:17:08;15.02;;;8.35;;
27213;SDS011;14723;55.814;37.460;2023-04-25T00:20:16;15.23;;;7.30;;
27213;SDS011;14723;55.814;37.460;2023-04-25T00:23:22;13.85;;;7.05;;
27213;SDS011;14723;55.814;37.460;2023-04-25T00:26:28;16.30;;;6.78;;
27213;SDS011;14723;55.814;37.460;2023-04-25T00:29:33;16.70;;;7.32;;
27213;SDS011;14723;55.814;37.460;2023-04-25T00:32:38;14.93;;;7.93;;
27213;SDS011;14723;55.814;37.460;2023-04-25T00:35:47;15.80;;;7.40;;
27213;SDS011;14723;55.814;37.460;2023-04-25T00:38:52;17.95;;;7.45;;
27213;SDS011;14723;55.814;37.460;2023-04-25T00:41:58;18.92;;;6.95;;
27213;SDS011;14723;55.814;37.460;2023-04-25T00:45:04;16.55;;;8.63;;
27213;SDS011;14723;55.814;37.460;2023-04-25T00:48:10;13.52;;;7.28;;
27213;SDS011;14723;55.814;37.460;2023-04-25T00:51:19;15.10;;;7.57;;
27213;SDS011;14723;55.814;37.460;2023-04-25T00:54:24;14.50;;;6.68;;
27213;SDS011;14723;55.814;37.460;2023-04-25T00:57:30;13.15;;;6.63;;
27213;SDS011;14723;55.814;37.460;2023-04-25T01:00:35;13.65;;;7.28;;
27213;SDS011;14723;55.814;37.460;2023-04-25T01:03:41;16.80;;;7.15;;
27213;SDS011;14723;55.814;37.460;2023-04-25T01:06:50;17.38;;;6.47;;
27213;SDS011;14723;55.814;37.460;2023-04-25T01:09:56;14.02;;;6.05;;
27213;SDS011;14723;55.814;37.460;2023-04-25T01:13:05;12.93;;;6.47;;
27213;SDS011;14723;55.814;37.460;2023-04-25T01:16:11;10.68;;;6.13;;
27213;SDS011;14723;55.814;37.460;2023-04-25T01:19:17;8.48;;;5.78;;
27213;SDS011;14723;55.814;37.460;2023-04-25T01:22:25;13.10;;;6.65;;
27213;SDS011;14723;55.814;37.460;2023-04-25T01:25:31;19.70;;;6.75;;
27213;SDS011;14723;55.814;37.460;2023-04-25T01:28:36;13.30;;;6.93;;
27213;SDS011;14723;55.814;37.460;2023-04-25T01:31:45;22.58;;;7.10;;
27213;SDS011;14723;55.814;37.460;2023-04-25T01:34:50;11.38;;;7.18;;
27213;SDS011;14723;55.814;37.460;2023-04-25T01:37:58;13.70;;;6.60;;
27213;SDS011;14723;55.814;37.460;2023-04-25T01:41:04;11.32;;;7.28;;
27213;SDS011;14723;55.814;37.460;2023-04-25T01:44:10;19.38;;;7.68;;
27213;SDS011;14723;55.814;37.460;2023-04-25T01:47:16;16.30;;;7.00;;
27213;SDS011;14723;55.814;37.460;2023-04-25T01:50:21;13.18;;;7.10;;
27213;SDS011;14723;55.814;37.460;2023-04-25T01:53:29;18.92;;;6.97;;
27213;SDS011;14723;55.814;37.460;2023-04-25T01:56:37;14.70;;;7.35;;
27213;SDS011;14723;55.814;37.460;2023-04-25T01:59:45;23.80;;;8.70;;
27213;SDS011;14723;55.814;37.460;2023-04-25T02:03:10;18.10;;;7.15;;
27213;SDS011;14723;55.814;37.460;2023-04-25T02:06:16;17.35;;;7.22;;
27213;SDS011;14723;55.814;37.460;2023-04-25T02:09:26;16.00;;;8.15;;
27213;SDS011;14723;55.814;37.460;2023-04-25T02:12:32;20.77;;;7.68;;
27213;SDS011;14723;55.814;37.460;2023-04-25T02:15:40;15.80;;;7.60;;
27213;SDS011;14723;55.814;37.460;2023-04-25T02:18:50;21.30;;;8.65;;
27213;SDS011;14723;55.814;37.460;2023-04-25T02:21:56;23.20;;;9.02;;
27213;SDS011;14723;55.814;37.460;2023-04-25T02:25:05;30.42;;;9.35;;
27213;SDS011;14723;55.814;37.460;2023-04-25T02:28:11;27.08;;;9.82;;
27213;SDS011;14723;55.814;37.460;2023-04-25T02:31:16;27.88;;;9.18;;
27213;SDS011;14723;55.814;37.460;2023-04-25T02:34:22;24.33;;;9.95;;
27213;SDS011;14723;55.814;37.460;2023-04-25T02:37:27;25.67;;;9.05;;
27213;SDS011;14723;55.814;37.460;2023-04-25T02:40:35;15.25;;;6.70;;
27213;SDS011;14723;55.814;37.460;2023-04-25T02:43:41;14.02;;;7.07;;
27213;SDS011;14723;55.814;37.460;2023-04-25T02:46:46;19.08;;;6.78;;
27213;SDS011;14723;55.814;37.460;2023-04-25T02:49:51;16.58;;;6.70;;
27213;SDS011;14723;55.814;37.460;2023-04-25T02:52:57;13.48;;;6.90;;
27213;SDS011;14723;55.814;37.460;2023-04-25T02:56:12;14.77;;;6.43;;
27213;SDS011;14723;55.814;37.460;2023-04-25T02:59:17;13.13;;;6.63;;
27213;SDS011;14723;55.814;37.460;2023-04-25T03:02:23;13.98;;;6.60;;
27213;SDS011;14723;55.814;37.460;2023-04-25T03:05:28;11.82;;;6.97;;
27213;SDS011;14723;55.814;37.460;2023-04-25T03:08:34;23.63;;;7.60;;
27213;SDS011;14723;55.814;37.460;2023-04-25T03:11:44;11.57;;;6.50;;
27213;SDS011;14723;55.814;37.460;2023-04-25T03:14:49;17.80;;;6.68;;
27213;SDS011;14723;55.814;37.460;2023-04-25T03:17:55;19.70;;;6.70;;
27213;SDS011;14723;55.814;37.460;2023-04-25T03:21:00;13.65;;;7.10;;
27213;SDS011;14723;55.814;37.460;2023-04-25T03:24:06;14.80;;;6.95;;
27213;SDS011;14723;55.814;37.460;2023-04-25T03:27:15;13.20;;;6.68;;
27213;SDS011;14723;55.814;37.460;2023-04-25T03:30:21;10.20;;;6.57;;
27213;SDS011;14723;55.814;37.460;2023-04-25T03:33:27;14.82;;;6.55;;
27213;SDS011;14723;55.814;37.460;2023-04-25T03:36:32;21.30;;;7.22;;
27213;SDS011;14723;55.814;37.460;2023-04-25T03:39:38;16.23;;;7.40;;
27213;SDS011;14723;55.814;37.460;2023-04-25T03:42:46;17.42;;;7.05;;
27213;SDS011;14723;55.814;37.460;2023-04-25T03:45:52;14.30;;;6.63;;
27213;SDS011;14723;55.814;37.460;2023-04-25T03:48:59;21.67;;;7.45;;
27213;SDS011;14723;55.814;37.460;2023-04-25T03:52:24;18.08;;;7.25;;
27213;SDS011;14723;55.814;37.460;2023-04-25T03:55:30;11.43;;;6.43;;
27213;SDS011;14723;55.814;37.460;2023-04-25T03:58:38;14.40;;;6.53;;
27213;SDS011;14723;55.814;37.460;2023-04-25T04:01:44;12.93;;;6.00;;
27213;SDS011;14723;55.814;37.460;2023-04-25T04:04:50;14.32;;;6.03;;
27213;SDS011;14723;55.814;37.460;2023-04-25T04:07:55;19.23;;;7.32;;
27213;SDS011;14723;55.814;37.460;2023-04-25T04:11:01;21.17;;;6.28;;
27213;SDS011;14723;55.814;37.460;2023-04-25T04:14:10;16.58;;;5.90;;
27213;SDS011;14723;55.814;37.460;2023-04-25T04:17:19;12.90;;;6.72;;
27213;SDS011;14723;55.814;37.460;2023-04-25T04:20:26;15.05;;;6.32;;
27213;SDS011;14723;55.814;37.460;2023-04-25T04:23:31;17.77;;;6.88;;
27213;SDS011;14723;55.814;37.460;2023-04-25T04:26:48;10.55;;;5.40;;
27213;SDS011;14723;55.814;37.460;2023-04-25T04:30:17;15.95;;;6.38;;
27213;SDS011;14723;55.814;37.460;2023-04-25T04:33:31;14.32;;;6.45;;
27213;SDS011;14723;55.814;37.460;2023-04-25T04:36:38;17.73;;;5.88;;
27213;SDS011;14723;55.814;37.460;2023-04-25T04:39:43;13.15;;;6.35;;
27213;SDS011;14723;55.814;37.460;2023-04-25T04:43:14;15.52;;;6.93;;
27213;SDS011;14723;55.814;37.460;2023-04-25T04:46:42;14.50;;;6.18;;
27213;SDS011;14723;55.814;37.460;2023-04-25T04:50:27;14.23;;;7.03;;
27213;SDS011;14723;55.814;37.460;2023-04-25T04:53:40;23.63;;;7.57;;
27213;SDS011;14723;55.814;37.460;2023-04-25T04:57:15;16.75;;;7.35;;
27213;SDS011;14723;55.814;37.460;2023-04-25T05:00:31;18.77;;;7.80;;
27213;SDS011;14723;55.814;37.460;2023-04-25T05:04:05;19.30;;;9.38;;
27213;SDS011;14723;55.814;37.460;2023-04-25T05:07:39;24.88;;;10.20;;
27213;SDS011;14723;55.814;37.460;2023-04-25T05:11:15;20.25;;;8.82;;
27213;SDS011;14723;55.814;37.460;2023-04-25T05:14:48;20.17;;;9.05;;
27213;SDS011;14723;55.814;37.460;2023-04-25T05:18:12;22.95;;;9.65;;
27213;SDS011;14723;55.814;37.460;2023-04-25T05:21:43;31.00;;;9.45;;
27213;SDS011;14723;55.814;37.460;2023-04-25T05:25:03;19.27;;;10.55;;
27213;SDS011;14723;55.814;37.460;2023-04-25T05:28:24;37.42;;;12.48;;
27213;SDS011;14723;55.814;37.460;2023-04-25T05:31:44;25.88;;;10.50;;
27213;SDS011;14723;55.814;37.460;2023-04-25T05:34:51;24.52;;;10.20;;
27213;SDS011;14723;55.814;37.460;2023-04-25T05:38:02;26.45;;;10.93;;
27213;SDS011;14723;55.814;37.460;2023-04-25T05:41:26;23.15;;;11.48;;
27213;SDS011;14723;55.814;37.460;2023-04-25T05:44:50;20.50;;;10.30;;
27213;SDS011;14723;55.814;37.460;2023-04-25T05:48:05;18.73;;;10.88;;
27213;SDS011;14723;55.814;37.460;2023-04-25T05:51:33;20.20;;;10.48;;
27213;SDS011;14723;55.814;37.460;2023-04-25T05:54:47;21.05;;;10.23;;
27213;SDS011;14723;55.814;37.460;2023-04-25T05:57:54;15.30;;;8.18;;
27213;SDS011;14723;55.814;37.460;2023-04-25T06:00:59;19.60;;;7.20;;
27213;SDS011;14723;55.814;37.460;2023-04-25T06:04:05;13.32;;;7.38;;
27213;SDS011;14723;55.814;37.460;2023-04-25T06:07:11;14.32;;;7.50;;
27213;SDS011;14723;55.814;37.460;2023-04-25T06:10:19;15.88;;;7.57;;
27213;SDS011;14723;55.814;37.460;2023-04-25T06:13:25;13.40;;;7.18;;
27213;SDS011;14723;55.814;37.460;2023-04-25T06:16:30;14.15;;;8.32;;
27213;SDS011;14723;55.814;37.460;2023-04-25T06:19:36;20.02;;;9.30;;
27213;SDS011;14723;55.814;37.460;2023-04-25T06:22:41;19.48;;;9.35;;
27213;SDS011;14723;55.814;37.460;2023-04-25T06:25:50;18.42;;;9.45;;
27213;SDS011;14723;55.814;37.460;2023-04-25T06:28:56;18.50;;;9.88;;
27213;SDS011;14723;55.814;37.460;2023-04-25T06:32:01;25.40;;;9.48;;
27213;SDS011;14723;55.814;37.460;2023-04-25T06:35:07;28.90;;;9.93;;
27213;SDS011;14723;55.814;37.460;2023-04-25T06:38:13;18.88;;;9.05;;
27213;SDS011;14723;55.814;37.460;2023-04-25T06:41:27;15.77;;;9.13;;
27213;SDS011;14723;55.814;37.460;2023-04-25T06:44:35;26.08;;;9.95;;
27213;SDS011;14723;55.814;37.460;2023-04-25T06:47:43;26.00;;;9.40;;
27213;SDS011;14723;55.814;37.460;2023-04-25T06:50:48;17.02;;;8.85;;
27213;SDS011;14723;55.814;37.460;2023-04-25T06:53:54;15.73;;;9.13;;
27213;SDS011;14723;55.814;37.460;2023-04-25T06:57:08;15.38;;;8.27;;
27213;SDS011;14723;55.814;37.460;2023-04-25T07:03:19;28.83;;;7.22;;
27213;SDS011;14723;55.814;37.460;2023-04-25T07:06:29;28.23;;;9.10;;
27213;SDS011;14723;55.814;37.460;2023-04-25T07:09:34;18.92;;;7.80;;
27213;SDS011;14723;55.814;37.460;2023-04-25T07:12:43;33.03;;;20.70;;
27213;SDS011;14723;55.814;37.460;2023-04-25T07:15:48;13.15;;;7.22;;
27213;SDS011;14723;55.814;37.460;2023-04-25T07:18:56;16.83;;;6.87;;
27213;SDS011;14723;55.814;37.460;2023-04-25T07:22:02;13.98;;;6.45;;
27213;SDS011;14723;55.814;37.460;2023-04-25T07:25:09;17.10;;;6.25;;
27213;SDS011;14723;55.814;37.460;2023-04-25T07:28:18;14.75;;;6.32;;
27213;SDS011;14723;55.814;37.460;2023-04-25T07:31:24;13.10;;;4.90;;
27213;SDS011;14723;55.814;37.460;2023-04-25T07:34:29;8.75;;;4.93;;
27213;SDS011;14723;55.814;37.460;2023-04-25T07:37:39;11.38;;;6.07;;
27213;SDS011;14723;55.814;37.460;2023-04-25T07:40:48;8.38;;;4.82;;
27213;SDS011;14723;55.814;37.460;2023-04-25T07:43:58;10.10;;;5.97;;
27213;SDS011;14723;55.814;37.460;2023-04-25T07:47:06;11.68;;;5.78;;
27213;SDS011;14723;55.814;37.460;2023-04-25T07:50:12;8.55;;;5.50;;
27213;SDS011;14723;55.814;37.460;2023-04-25T07:53:18;25.10;;;6.90;;
27213;SDS011;14723;55.814;37.460;2023-04-25T07:56:32;15.80;;;7.35;;
27213;SDS011;14723;55.814;37.460;2023-04-25T07:59:54;16.42;;;7.90;;
27213;SDS011;14723;55.814;37.460;2023-04-25T08:03:00;20.00;;;7.20;;
27213;SDS011;14723;55.814;37.460;2023-04-25T08:06:06;11.65;;;6.35;;
27213;SDS011;14723;55.814;37.460;2023-04-25T08:09:22;16.45;;;6.25;;
27213;SDS011;14723;55.814;37.460;2023-04-25T08:12:29;11.15;;;5.63;;
27213;SDS011;14723;55.814;37.460;2023-04-25T08:15:38;10.43;;;5.90;;
27213;SDS011;14723;55.814;37.460;2023-04-25T08:21:48;13.95;;;6.40;;
27213;SDS011;14723;55.814;37.460;2023-04-25T08:25:01;14.32;;;6.78;;
27213;SDS011;14723;55.814;37.460;2023-04-25T08:28:07;18.75;;;7.85;;
27213;SDS011;14723;55.814;37.460;2023-04-25T08:31:15;19.90;;;6.78;;
27213;SDS011;14723;55.814;37.460;2023-04-25T08:34:32;15.88;;;7.40;;
27213;SDS011;14723;55.814;37.460;2023-04-25T08:37:38;19.60;;;6.32;;
27213;SDS011;14723;55.814;37.460;2023-04-25T08:40:49;12.38;;;6.53;;
27213;SDS011;14723;55.814;37.460;2023-04-25T08:43:55;18.00;;;5.93;;
27213;SDS011;14723;55.814;37.460;2023-04-25T08:47:05;14.27;;;6.10;;
27213;SDS011;14723;55.814;37.460;2023-04-25T08:50:23;17.50;;;6.05;;
27213;SDS011;14723;55.814;37.460;2023-04-25T08:53:30;19.98;;;6.57;;
27213;SDS011;14723;55.814;37.460;2023-04-25T08:56:40;21.42;;;6.93;;
27213;SDS011;14723;55.814;37.460;2023-04-25T08:59:45;16.23;;;6.45;;
27213;SDS011;14723;55.814;37.460;2023-04-25T09:02:54;10.35;;;5.28;;
27213;SDS011;14723;55.814;37.460;2023-04-25T09:06:04;16.70;;;5.68;;
27213;SDS011;14723;55.814;37.460;2023-04-25T09:09:09;10.98;;;5.72;;
27213;SDS011;14723;55.814;37.460;2023-04-25T09:12:15;10.68;;;6.10;;
27213;SDS011;14723;55.814;37.460;2023-04-25T09:15:21;13.65;;;5.25;;
27213;SDS011;14723;55.814;37.460;2023-04-25T09:18:30;10.05;;;4.75;;
27213;SDS011;14723;55.814;37.460;2023-04-25T09:21:36;7.28;;;4.53;;
27213;SDS011;14723;55.814;37.460;2023-04-25T09:24:42;13.45;;;5.00;;
27213;SDS011;14723;55.814;37.460;2023-04-25T09:27:53;7.60;;;4.80;;
27213;SDS011;14723;55.814;37.460;2023-04-25T09:31:02;8.70;;;4.40;;
27213;SDS011;14723;55.814;37.460;2023-04-25T09:34:17;13.20;;;5.05;;
27213;SDS011;14723;55.814;37.460;2023-04-25T09:37:29;8.52;;;4.70;;
27213;SDS011;14723;55.814;37.460;2023-04-25T09:41:07;9.07;;;5.32;;
27213;SDS011;14723;55.814;37.460;2023-04-25T09:44:22;10.70;;;5.07;;
27213;SDS011;14723;55.814;37.460;2023-04-25T09:47:30;11.23;;;4.85;;
27213;SDS011;14723;55.814;37.460;2023-04-25T09:50:38;9.00;;;4.40;;
27213;SDS011;14723;55.814;37.460;2023-04-25T09:53:46;8.75;;;4.95;;
27213;SDS011;14723;55.814;37.460;2023-04-25T09:57:06;10.93;;;5.20;;
27213;SDS011;14723;55.814;37.460;2023-04-25T10:00:16;10.75;;;4.40;;
27213;SDS011;14723;55.814;37.460;2023-04-25T10:03:23;10.27;;;4.90;;
27213;SDS011;14723;55.814;37.460;2023-04-25T10:06:54;11.07;;;5.25;;
27213;SDS011;14723;55.814;37.460;2023-04-25T10:10:02;7.22;;;4.68;;
27213;SDS011;14723;55.814;37.460;2023-04-25T10:13:08;9.50;;;5.32;;
27213;SDS011;14723;55.814;37.460;2023-04-25T10:16:13;9.20;;;5.50;;
27213;SDS011;14723;55.814;37.460;2023-04-25T10:19:19;13.30;;;5.65;;
27213;SDS011;14723;55.814;37.460;2023-04-25T10:22:29;10.50;;;5.60;;
27213;SDS011;14723;55.814;37.460;2023-04-25T10:25:35;11.45;;;6.30;;
27213;SDS011;14723;55.814;37.460;2023-04-25T10:32:02;12.10;;;5.93;;
27213;SDS011;14723;55.814;37.460;2023-04-25T10:35:11;13.70;;;5.65;;
27213;SDS011;14723;55.814;37.460;2023-04-25T10:38:20;6.78;;;5.28;;
27213;SDS011;14723;55.814;37.460;2023-04-25T10:41:26;16.02;;;6.68;;
27213;SDS011;14723;55.814;37.460;2023-04-25T10:44:32;10.98;;;6.55;;
27213;SDS011;14723;55.814;37.460;2023-04-25T10:47:43;16.40;;;6.95;;
27213;SDS011;14723;55.814;37.460;2023-04-25T10:50:49;11.27;;;6.10;;
27213;SDS011;14723;55.814;37.460;2023-04-25T10:54:00;29.38;;;6.05;;
27213;SDS011;14723;55.814;37.460;2023-04-25T10:57:06;13.50;;;5.43;;
27213;SDS011;14723;55.814;37.460;2023-04-25T11:00:12;10.60;;;5.53;;
27213;SDS011;14723;55.814;37.460;2023-04-25T11:03:20;12.75;;;4.85;;
27213;SDS011;14723;55.814;37.460;2023-04-25T11:06:28;11.20;;;5.38;;
27213;SDS011;14723;55.814;37.460;2023-04-25T11:09:37;9.50;;;4.45;;
27213;SDS011;14723;55.814;37.460;2023-04-25T11:12:44;5.03;;;4.13;;
27213;SDS011;14723;55.814;37.460;2023-04-25T11:15:51;8.07;;;3.67;;
27213;SDS011;14723;55.814;37.460;2023-04-25T11:19:13;11.07;;;4.00;;
27213;SDS011;14723;55.814;37.460;2023-04-25T11:22:19;6.03;;;3.50;;
27213;SDS011;14723;55.814;37.460;2023-04-25T11:25:28;6.32;;;3.88;;
27213;SDS011;14723;55.814;37.460;2023-04-25T11:28:37;10.50;;;3.88;;
27213;SDS011;14723;55.814;37.460;2023-04-25T11:31:43;13.52;;;4.47;;
27213;SDS011;14723;55.814;37.460;2023-04-25T11:34:48;6.03;;;3.70;;
27213;SDS011;14723;55.814;37.460;2023-04-25T11:37:54;11.00;;;3.95;;
27213;SDS011;14723;55.814;37.460;2023-04-25T11:41:02;6.72;;;3.60;;
27213;SDS011;14723;55.814;37.460;2023-04-25T11:44:07;5.43;;;2.97;;
27213;SDS011;14723;55.814;37.460;2023-04-25T11:47:13;11.70;;;4.03;;
27213;SDS011;14723;55.814;37.460;2023-04-25T11:50:18;7.00;;;3.00;;
27213;SDS011;14723;55.814;37.460;2023-04-25T11:53:24;9.63;;;3.90;;
27213;SDS011;14723;55.814;37.460;2023-04-25T11:56:33;8.05;;;4.07;;
27213;SDS011;14723;55.814;37.460;2023-04-25T11:59:38;5.72;;;3.55;;
27213;SDS011;14723;55.814;37.460;2023-04-25T12:02:44;8.52;;;3.35;;
27213;SDS011;14723;55.814;37.460;2023-04-25T12:05:51;6.07;;;3.30;;
27213;SDS011;14723;55.814;37.460;2023-04-25T12:09:00;8.80;;;3.53;;
27213;SDS011;14723;55.814;37.460;2023-04-25T12:12:09;11.63;;;7.20;;
27213;SDS011;14723;55.814;37.460;2023-04-25T12:15:16;11.38;;;4.15;;
27213;SDS011;14723;55.814;37.460;2023-04-25T12:18:23;8.40;;;3.87;;
27213;SDS011;14723;55.814;37.460;2023-04-25T12:21:30;6.55;;;3.05;;
27213;SDS011;14723;55.814;37.460;2023-04-25T12:24:44;9.68;;;3.45;;
27213;SDS011;14723;55.814;37.460;2023-04-25T12:27:52;5.50;;;3.08;;
27213;SDS011;14723;55.814;37.460;2023-04-25T12:30:59;6.00;;;3.20;;
27213;SDS011;14723;55.814;37.460;2023-04-25T12:34:06;6.95;;;3.17;;
27213;SDS011;14723;55.814;37.460;2023-04-25T12:37:11;7.35;;;3.45;;
27213;SDS011;14723;55.814;37.460;2023-04-25T12:40:17;8.40;;;3.55;;
27213;SDS011;14723;55.814;37.460;2023-04-25T12:43:26;3.83;;;3.25;;
27213;SDS011;14723;55.814;37.460;2023-04-25T12:46:31;8.07;;;3.45;;
27213;SDS011;14723;55.814;37.460;2023-04-25T12:49:37;7.65;;;3.13;;
27213;SDS011;14723;55.814;37.460;2023-04-25T12:52:43;10.35;;;3.75;;
27213;SDS011;14723;55.814;37.460;2023-04-25T12:55:48;6.47;;;3.20;;
27213;SDS011;14723;55.814;37.460;2023-04-25T12:59:00;10.02;;;3.72;;
27213;SDS011;14723;55.814;37.460;2023-04-25T13:02:05;8.13;;;3.55;;
27213;SDS011;14723;55.814;37.460;2023-04-25T13:05:10;13.10;;;3.67;;
27213;SDS011;14723;55.814;37.460;2023-04-25T13:08:16;13.70;;;3.63;;
27213;SDS011;14723;55.814;37.460;2023-04-25T13:11:21;8.48;;;3.95;;
27213;SDS011;14723;55.814;37.460;2023-04-25T13:14:29;15.82;;;3.97;;
27213;SDS011;14723;55.814;37.460;2023-04-25T13:17:34;6.63;;;3.63;;
27213;SDS011;14723;55.814;37.460;2023-04-25T13:20:40;3.28;;;2.97;;
27213;SDS011;14723;55.814;37.460;2023-04-25T13:23:45;9.77;;;3.90;;
27213;SDS011;14723;55.814;37.460;2023-04-25T13:26:51;9.02;;;3.75;;
27213;SDS011;14723;55.814;37.460;2023-04-25T13:29:59;9.25;;;3.55;;
27213;SDS011;14723;55.814;37.460;2023-04-25T13:33:09;6.00;;;3.28;;
27213;SDS011;14723;55.814;37.460;2023-04-25T13:36:15;9.43;;;3.53;;
27213;SDS011;14723;55.814;37.460;2023-04-25T13:39:20;7.38;;;3.90;;
27213;SDS011;14723;55.814;37.460;2023-04-25T13:42:26;8.20;;;3.35;;
27213;SDS011;14723;55.814;37.460;2023-04-25T13:45:33;9.82;;;3.85;;
27213;SDS011;14723;55.814;37.460;2023-04-25T13:51:48;14.95;;;4.78;;
27213;SDS011;14723;55.814;37.460;2023-04-25T13:54:53;8.50;;;4.47;;
27213;SDS011;14723;55.814;37.460;2023-04-25T13:57:59;7.82;;;3.63;;
27213;SDS011;14723;55.814;37.460;2023-04-25T14:01:12;13.55;;;4.15;;
27213;SDS011;14723;55.814;37.460;2023-04-25T14:04:17;7.05;;;3.80;;
27213;SDS011;14723;55.814;37.460;2023-04-25T14:07:23;8.13;;;3.58;;
27213;SDS011;14723;55.814;37.460;2023-04-25T14:10:30;9.93;;;4.28;;
27213;SDS011;14723;55.814;37.460;2023-04-25T14:13:35;20.42;;;4.43;;
27213;SDS011;14723;55.814;37.460;2023-04-25T14:16:44;17.02;;;4.40;;
27213;SDS011;14723;55.814;37.460;2023-04-25T14:19:50;12.73;;;4.07;;
27213;SDS011;14723;55.814;37.460;2023-04-25T14:22:55;6.80;;;3.53;;
27213;SDS011;14723;55.814;37.460;2023-04-25T14:26:00;9.45;;;4.25;;
27213;SDS011;14723;55.814;37.460;2023-04-25T14:29:07;7.82;;;3.63;;
27213;SDS011;14723;55.814;37.460;2023-04-25T14:32:17;9.80;;;4.03;;
27213;SDS011;14723;55.814;37.460;2023-04-25T14:38:27;6.30;;;3.60;;
27213;SDS011;14723;55.814;37.460;2023-04-25T14:41:33;8.40;;;3.83;;
27213;SDS011;14723;55.814;37.460;2023-04-25T14:44:38;8.10;;;3.80;;
27213;SDS011;14723;55.814;37.460;2023-04-25T14:47:46;5.35;;;3.33;;
27213;SDS011;14723;55.814;37.460;2023-04-25T14:50:52;9.10;;;4.25;;
27213;SDS011;14723;55.814;37.460;2023-04-25T14:53:58;5.15;;;4.03;;
27213;SDS011;14723;55.814;37.460;2023-04-25T14:57:04;4.57;;;3.50;;
27213;SDS011;14723;55.814;37.460;2023-04-25T15:00:10;14.30;;;3.80;;
27213;SDS011;14723;55.814;37.460;2023-04-25T15:03:21;9.20;;;4.18;;
27213;SDS011;14723;55.814;37.460;2023-04-25T15:06:27;10.20;;;4.20;;
27213;SDS011;14723;55.814;37.460;2023-04-25T15:09:32;10.50;;;4.68;;
27213;SDS011;14723;55.814;37.460;2023-04-25T15:12:38;11.65;;;4.47;;
27213;SDS011;14723;55.814;37.460;2023-04-25T15:15:43;9.60;;;3.60;;
27213;SDS011;14723;55.814;37.460;2023-04-25T15:18:56;9.50;;;4.22;;
27213;SDS011;14723;55.814;37.460;2023-04-25T15:25:08;6.43;;;3.85;;
27213;SDS011;14723;55.814;37.460;2023-04-25T15:28:14;9.57;;;4.45;;
27213;SDS011;14723;55.814;37.460;2023-04-25T15:31:19;14.13;;;4.82;;
27213;SDS011;14723;55.814;37.460;2023-04-25T15:34:27;7.57;;;4.40;;
27213;SDS011;14723;55.814;37.460;2023-04-25T15:37:35;7.38;;;4.53;;
27213;SDS011;14723;55.814;37.460;2023-04-25T15:40:41;10.85;;;5.60;;
27213;SDS011;14723;55.814;37.460;2023-04-25T15:43:47;13.82;;;5.57;;
27213;SDS011;14723;55.814;37.460;2023-04-25T15:46:53;10.15;;;5.45;;
27213;SDS011;14723;55.814;37.460;2023-04-25T15:50:28;8.85;;;5.18;;
27213;SDS011;14723;55.814;37.460;2023-04-25T15:53:37;12.73;;;6.18;;
27213;SDS011;14723;55.814;37.460;2023-04-25T15:56:42;12.18;;;5.57;;
27213;SDS011;14723;55.814;37.460;2023-04-25T15:59:48;10.02;;;5.25;;
27213;SDS011;14723;55.814;37.460;2023-04-25T16:02:54;10.68;;;4.50;;
27213;SDS011;14723;55.814;37.460;2023-04-25T16:06:02;10.02;;;4.78;;
27213;SDS011;14723;55.814;37.460;2023-04-25T16:09:09;18.05;;;5.45;;
27213;SDS011;14723;55.814;37.460;2023-04-25T16:12:15;11.52;;;4.72;;
27213;SDS011;14723;55.814;37.460;2023-04-25T16:15:21;9.30;;;5.22;;
27213;SDS011;14723;55.814;37.460;2023-04-25T16:18:27;16.05;;;4.53;;
27213;SDS011;14723;55.814;37.460;2023-04-25T16:21:34;12.57;;;4.60;;
27213;SDS011;14723;55.814;37.460;2023-04-25T16:24:40;11.15;;;4.40;;
27213;SDS011;14723;55.814;37.460;2023-04-25T16:27:45;8.15;;;4.07;;
27213;SDS011;14723;55.814;37.460;2023-04-25T16:30:50;9.25;;;4.88;;
27213;SDS011;14723;55.814;37.460;2023-04-25T16:33:56;9.18;;;5.18;;
27213;SDS011;14723;55.814;37.460;2023-04-25T16:37:04;7.75;;;5.20;;
27213;SDS011;14723;55.814;37.460;2023-04-25T16:40:09;12.25;;;5.32;;
27213;SDS011;14723;55.814;37.460;2023-04-25T16:43:15;12.43;;;4.55;;
27213;SDS011;14723;55.814;37.460;2023-04-25T16:46:21;12.65;;;5.03;;
27213;SDS011;14723;55.814;37.460;2023-04-25T16:49:27;10.50;;;4.80;;
27213;SDS011;14723;55.814;37.460;2023-04-25T16:52:35;13.80;;;5.03;;
27213;SDS011;14723;55.814;37.460;2023-04-25T16:55:41;7.25;;;4.25;;
27213;SDS011;14723;55.814;37.460;2023-04-25T16:58:46;10.93;;;4.65;;
27213;SDS011;14723;55.814;37.460;2023-04-25T17:01:53;11.30;;;4.78;;
27213;SDS011;14723;55.814;37.460;2023-04-25T17:04:59;8.60;;;4.65;;
27213;SDS011;14723;55.814;37.460;2023-04-25T17:08:07;9.82;;;4.45;;
27213;SDS011;14723;55.814;37.460;2023-04-25T17:11:13;9.70;;;4.70;;
27213;SDS011;14723;55.814;37.460;2023-04-25T17:14:19;5.53;;;4.22;;
27213;SDS011;14723;55.814;37.460;2023-04-25T17:17:24;7.43;;;4.50;;
27213;SDS011;14723;55.814;37.460;2023-04-25T17:20:30;9.52;;;4.50;;
27213;SDS011;14723;55.814;37.460;2023-04-25T17:23:37;8.75;;;4.60;;
27213;SDS011;14723;55.814;37.460;2023-04-25T17:26:46;11.70;;;4.80;;
27213;SDS011;14723;55.814;37.460;2023-04-25T17:29:52;14.60;;;4.93;;
27213;SDS011;14723;55.814;37.460;2023-04-25T17:32:57;12.43;;;6.10;;
27213;SDS011;14723;55.814;37.460;2023-04-25T17:36:03;11.30;;;4.95;;
27213;SDS011;14723;55.814;37.460;2023-04-25T17:39:14;10.95;;;5.15;;
27213;SDS011;14723;55.814;37.460;2023-04-25T17:42:20;12.48;;;5.80;;
27213;SDS011;14723;55.814;37.460;2023-04-25T17:45:25;13.32;;;5.43;;
27213;SDS011;14723;55.814;37.460;2023-04-25T17:48:35;15.60;;;4.85;;
27213;SDS011;14723;55.814;37.460;2023-04-25T17:51:40;14.45;;;5.07;;
27213;SDS011;14723;55.814;37.460;2023-04-25T17:54:49;18.83;;;5.80;;
27213;SDS011;14723;55.814;37.460;2023-04-25T18:00:59;10.43;;;4.80;;
27213;SDS011;14723;55.814;37.460;2023-04-25T18:04:06;24.85;;;4.63;;
27213;SDS011;14723;55.814;37.460;2023-04-25T18:07:12;11.77;;;4.47;;
27213;SDS011;14723;55.814;37.460;2023-04-25T18:10:21;14.52;;;4.70;;
27213;SDS011;14723;55.814;37.460;2023-04-25T18:13:26;5.97;;;4.07;;
27213;SDS011;14723;55.814;37.460;2023-04-25T18:16:31;11.55;;;4.20;;
27213;SDS011;14723;55.814;37.460;2023-04-25T18:19:37;11.32;;;4.55;;
27213;SDS011;14723;55.814;37.460;2023-04-25T18:22:43;7.47;;;4.65;;
27213;SDS011;14723;55.814;37.460;2023-04-25T18:25:51;7.60;;;3.90;;
27213;SDS011;14723;55.814;37.460;2023-04-25T18:28:57;13.27;;;4.75;;
27213;SDS011;14723;55.814;37.460;2023-04-25T18:32:02;9.52;;;4.40;;
27213;SDS011;14723;55.814;37.460;2023-04-25T18:35:08;8.40;;;4.43;;
27213;SDS011;14723;55.814;37.460;2023-04-25T18:38:14;5.43;;;3.75;;
27213;SDS011;14723;55.814;37.460;2023-04-25T18:41:38;8.20;;;3.78;;
27213;SDS011;14723;55.814;37.460;2023-04-25T18:45:01;5.75;;;4.10;;
27213;SDS011;14723;55.814;37.460;2023-04-25T18:48:06;8.52;;;4.22;;
27213;SDS011;14723;55.814;37.460;2023-04-25T18:51:12;8.68;;;5.10;;
27213;SDS011;14723;55.814;37.460;2023-04-25T18:54:17;9.43;;;4.20;;